AirNav   Phillips 66 Aviation Fuel
 
 1032 users online  

3Z1 Feather River Airport
Feather River, Alaska, USA

GOING TO FEATHER RIVER?


FAA INFORMATION EFFECTIVE 21 JUNE 2018

Location

FAA Identifier: 3Z1
Lat/Long: 64-49-54.2180N / 166-07-53.4800W
64-49.903633N / 166-07.891333W
64.8317272 / -166.1315222
(estimated)
Elevation: 325 ft. / 99 m (estimated)
Variation: 16E (1985)
From city: 1 mile W of FEATHER RIVER, AK
Time zone: UTC -8 (UTC -9 during Standard Time)

Airport Operations

Airport use: Open to the public
Activation date: 08/1963
Control tower: no
ARTCC: ANCHORAGE CENTER
FSS: NOME FLIGHT SERVICE STATION [ 443-2291 (local call from the AIRPORT)]
Alternate FSS: FAI FAIRBANKS FLIGHT SERVICE STATION [1-866-248-6516]
NOTAMs facility: OME (NOTAM-D service available)
Attendance: UNATNDD
Wind indicator: no
Segmented circle: no

Airport Communications

CTAF: 122.9

Nearby radio navigation aids

VOR radial/distance  VOR name  Freq  Var
OMEr302/30.7NOME VOR/DME115.0011E

 
NDB name  Hdg/Dist  Freq  Var  ID
FORT DAVIS303/29.152911EFDV ..-. -.. ...-

Airport Services

Airframe service: NONE
Powerplant service: NONE
Bottled oxygen: NONE
Bulk oxygen: NONE

Runway Information

Runway 12/30

Dimensions: 1190 x 30 ft. / 363 x 9 m
Surface: gravel, in poor condition
NUMEROUS SMALL ROCK PILES 24 IN DIA X 12 IN HIGH OBSCURED BY 18 IN GRASSES ON RY LNDG SFC.
RUNWAY 12  RUNWAY 30
Gradient: 0.6%0.6%
Traffic pattern: leftleft
Obstructions: none14 ft. brush, 345 ft. from runway, 24:1 slope to clear
TERRAIN 24 FT HIGHER THAN RY 30 THLD.

Airport Ownership and Management from official FAA records

Ownership: Publicly-owned
Owner: PUBLIC DOMAIN

Additional Remarks

HIGHER GRAVEL TERRAIN/RIDGE E SIDE RY 12/30; DIFFICULT TO SEE FROM AIR.
RY 12/30 NOT MAINTAINED; RECOMMEND VISUAL INSPECTION PRIOR TO LANDING.

Instrument Procedures

There are no published instrument procedures at 3Z1.

Some nearby airports with instrument procedures:

PATE - Teller Airport (25 nm N)
PAOM - Nome Airport (26 nm SE)
PFKT - Brevig Mission Airport (31 nm N)
PATC - Tin City LRRS Airport (63 nm NW)
PAIW - Wales Airport (68 nm NW)
 
Loc | Ops | Rwys | IFR | FBO | Links
Com | Nav | Svcs | Stats | Notes

Crowley
 
Area around 3Z1 (Feather River Airport)
 
Road maps at: MapQuest Bing Google
 
Aerial photo
No photo
 
Sectional chart

 
Airport distance calculator
Flying to Feather River Airport? Find the distance to fly.

From to 3Z1

Sunrise and sunset
Times for 23-Jun-2018
 Local
(UTC-8)
 Zulu
(UTC)
Morning civil twilight++
Sunrise04:1312:13
Sunset02:0010:00
Evening civil twilight++

Current date and time
Zulu (UTC)  23-Jun-2018 18:51:11
Local (UTC-8)  23-Jun-2018 10:51:11
 
METAR
PATE 
25nm N 
231824Z AUTO 27007KT 10SM BKN013 OVC027 08/05 A3009 RMK AO2
PAOM 
27nm SE 
231753Z 21005KT 10SM FEW020 BKN040 09/05 A3008 RMK AO2 SLP187 T00890050 10094 20083 51007
PFKT 
31nm N 
231820Z AUTO 24006KT 10SM OVC031 08/06 A3011 RMK AO2
TAF
PAOM 
27nm SE 
231724Z 2318/2418 21007KT P6SM SCT035 BKN050 BKN100= TAF PASC 231724Z 2318/2418 VRB06KT P6SM FEW007 SCT250 FM232200 06005KT P6SM SCT007 SCT150 SCT250
NOTAMs
Click for the latest NOTAMs
NOTAMs are issued by the DoD/FAA and will open in a separate window not controlled by AirNav.

 

 
 

Would you like to see your business listed on this page?

 If your business provides an interesting product or service to pilots, flight crews, aircraft, or users of the Feather River Airport, you should consider listing it here.  To start the listing process, click on the button below
 
Add a business
 

Other Pages about Feather River Airport

Update a link
 
Copyright © AirNav, LLC. All rights reserved. Privacy Policy  Contact